createdAt,value
2018-05-06T00:02:07.030Z,9.10
2018-05-06T00:04:33.785Z,8.80
2018-05-06T00:07:00.606Z,9.57
2018-05-06T00:09:27.361Z,8.53
2018-05-06T00:11:54.118Z,9.87
2018-05-06T00:14:20.853Z,9.67
2018-05-06T00:16:47.585Z,8.90
2018-05-06T00:19:14.328Z,8.93
2018-05-06T00:21:41.073Z,9.20
2018-05-06T00:24:07.818Z,9.40
2018-05-06T00:26:34.532Z,9.37
2018-05-06T00:29:01.274Z,9.37
2018-05-06T00:31:27.994Z,9.07
2018-05-06T00:33:54.713Z,8.73
2018-05-06T00:36:21.462Z,8.43
2018-05-06T00:38:48.185Z,9.40
2018-05-06T00:41:14.921Z,8.67
2018-05-06T00:43:41.669Z,9.27
2018-05-06T00:46:08.384Z,9.50
2018-05-06T00:48:35.101Z,8.43
2018-05-06T00:51:01.871Z,9.60
2018-05-06T00:53:28.572Z,9.63
2018-05-06T00:55:55.280Z,9.23
2018-05-06T00:58:22.027Z,8.93
2018-05-06T01:00:48.771Z,9.43
2018-05-06T01:03:15.516Z,9.23
2018-05-06T01:05:42.307Z,10.07
2018-05-06T01:08:09.018Z,10.80
2018-05-06T01:10:35.780Z,9.87
2018-05-06T01:13:02.504Z,8.80
2018-05-06T01:15:29.254Z,9.53
2018-05-06T01:17:56.023Z,9.60
2018-05-06T01:20:22.856Z,13.50
2018-05-06T01:22:49.661Z,13.30
2018-05-06T01:25:16.383Z,12.77
2018-05-06T01:27:43.138Z,14.90
2018-05-06T01:30:09.922Z,13.60
2018-05-06T01:32:36.646Z,12.00
2018-05-06T01:35:03.421Z,12.30
2018-05-06T01:37:30.124Z,11.37
2018-05-06T01:39:56.879Z,12.23
2018-05-06T01:42:23.625Z,13.40
2018-05-06T01:44:50.382Z,13.23
2018-05-06T01:47:17.155Z,13.50
2018-05-06T01:49:43.903Z,12.83
2018-05-06T01:52:10.634Z,14.57
2018-05-06T01:54:37.423Z,14.00
2018-05-06T01:57:04.139Z,12.77
2018-05-06T01:59:30.917Z,14.67
2018-05-06T02:01:57.671Z,14.23
2018-05-06T02:04:24.413Z,15.43
2018-05-06T02:06:51.160Z,16.30
2018-05-06T02:09:17.894Z,15.03
2018-05-06T02:11:44.598Z,16.57
2018-05-06T02:14:11.341Z,15.53
2018-05-06T02:16:38.075Z,15.07
2018-05-06T02:19:04.797Z,14.30
2018-05-06T02:21:31.546Z,15.27
2018-05-06T02:23:58.281Z,16.77
2018-05-06T02:26:24.995Z,16.07
2018-05-06T02:28:51.735Z,16.27
2018-05-06T02:31:18.454Z,16.20
2018-05-06T02:33:45.206Z,16.13
2018-05-06T02:36:11.981Z,16.90
2018-05-06T02:38:38.699Z,17.07
2018-05-06T02:41:05.509Z,16.00
2018-05-06T02:43:32.271Z,15.03
2018-05-06T02:45:59.000Z,15.50
2018-05-06T02:48:25.750Z,15.90
2018-05-06T02:50:52.473Z,15.93
2018-05-06T02:53:19.214Z,16.43
2018-05-06T02:55:45.960Z,16.40
2018-05-06T02:58:12.679Z,16.83
2018-05-06T03:00:39.410Z,17.40
2018-05-06T03:03:06.178Z,17.87
2018-05-06T03:05:32.919Z,18.10
2018-05-06T03:07:59.637Z,18.53
2018-05-06T03:10:26.472Z,18.27
2018-05-06T03:12:53.170Z,17.47
2018-05-06T03:15:19.894Z,18.90
2018-05-06T03:17:46.651Z,17.90
2018-05-06T03:20:13.368Z,17.43
2018-05-06T03:22:40.109Z,17.50
2018-05-06T03:25:06.859Z,17.57
2018-05-06T03:27:33.579Z,18.30
2018-05-06T03:30:00.317Z,17.97
2018-05-06T03:32:27.068Z,18.27
2018-05-06T03:34:53.793Z,17.90
2018-05-06T03:37:20.533Z,17.60
2018-05-06T03:39:47.254Z,17.30
2018-05-06T03:42:13.979Z,18.50
2018-05-06T03:44:40.720Z,18.00
2018-05-06T03:47:07.430Z,16.83
2018-05-06T03:49:34.158Z,18.57
2018-05-06T03:52:00.939Z,19.27
2018-05-06T03:54:27.692Z,18.77
2018-05-06T03:57:00.296Z,19.40
2018-05-06T03:59:32.967Z,19.47
2018-05-06T04:02:17.412Z,20.23
2018-05-06T04:04:44.162Z,19.23
2018-05-06T04:07:10.903Z,19.63
2018-05-06T04:09:37.688Z,17.93
2018-05-06T04:12:04.421Z,19.80
2018-05-06T04:14:31.125Z,20.23
2018-05-06T04:16:57.865Z,21.13
2018-05-06T04:19:24.579Z,20.07
2018-05-06T04:21:51.409Z,20.20
2018-05-06T04:24:18.143Z,21.57
2018-05-06T04:26:44.906Z,22.33
2018-05-06T04:29:11.642Z,20.70
2018-05-06T04:31:38.362Z,21.80
2018-05-06T04:34:05.103Z,22.57
2018-05-06T04:36:31.827Z,22.20
2018-05-06T04:38:58.538Z,21.93
2018-05-06T04:41:25.290Z,21.20
2018-05-06T04:43:52.031Z,20.30
2018-05-06T04:46:18.764Z,20.37
2018-05-06T04:48:45.497Z,20.47
2018-05-06T04:51:12.201Z,19.83
2018-05-06T04:53:38.934Z,20.23
2018-05-06T04:56:05.685Z,21.60
2018-05-06T04:58:32.435Z,22.23
2018-05-06T05:00:59.216Z,22.47
2018-05-06T05:03:26.005Z,23.37
2018-05-06T05:05:52.710Z,21.00
2018-05-06T05:08:19.428Z,22.17
2018-05-06T05:10:46.198Z,21.00
2018-05-06T05:13:12.926Z,19.87
2018-05-06T05:15:39.660Z,20.60
2018-05-06T05:18:06.471Z,19.47
2018-05-06T05:20:33.212Z,18.60
2018-05-06T05:23:00.020Z,20.37
2018-05-06T05:25:26.757Z,20.67
2018-05-06T05:27:53.462Z,20.20
2018-05-06T05:30:20.222Z,19.73
2018-05-06T05:32:46.947Z,19.93
2018-05-06T05:35:13.684Z,19.77
2018-05-06T05:37:40.423Z,19.67
2018-05-06T05:40:07.134Z,19.57
2018-05-06T05:42:33.893Z,19.13
2018-05-06T05:45:00.611Z,19.17
2018-05-06T05:47:27.348Z,18.83
2018-05-06T05:49:54.079Z,19.57
2018-05-06T05:52:20.798Z,19.27
2018-05-06T05:54:47.522Z,19.20
2018-05-06T05:57:14.273Z,19.53
2018-05-06T05:59:41.000Z,19.07
2018-05-06T06:02:07.785Z,17.60
2018-05-06T06:04:34.514Z,17.30
2018-05-06T06:07:01.242Z,17.80
2018-05-06T06:09:28.020Z,18.80
2018-05-06T06:11:54.925Z,16.47
2018-05-06T06:14:21.700Z,16.10
2018-05-06T06:16:48.433Z,16.80
2018-05-06T06:19:15.728Z,15.90
2018-05-06T06:21:42.487Z,16.80
2018-05-06T06:24:09.226Z,15.53
2018-05-06T06:26:35.997Z,15.93
2018-05-06T06:29:02.726Z,14.30
2018-05-06T06:31:29.434Z,16.70
2018-05-06T06:33:56.209Z,15.80
2018-05-06T06:36:22.922Z,15.37
2018-05-06T06:38:49.651Z,15.97
2018-05-06T06:41:16.457Z,15.80
2018-05-06T06:43:43.199Z,15.00
2018-05-06T06:46:09.941Z,15.83
2018-05-06T06:48:36.747Z,16.20
2018-05-06T06:51:03.493Z,16.07
2018-05-06T06:53:30.207Z,15.80
2018-05-06T06:55:56.970Z,17.20
2018-05-06T06:58:23.734Z,14.67
2018-05-06T07:00:50.441Z,14.30
2018-05-06T07:03:17.173Z,15.27
2018-05-06T07:05:43.876Z,15.63
2018-05-06T07:08:10.676Z,14.53
2018-05-06T07:10:37.438Z,16.03
2018-05-06T07:13:04.148Z,15.73
2018-05-06T07:15:30.883Z,16.40
2018-05-06T07:17:57.612Z,15.87
2018-05-06T07:20:24.345Z,15.80
2018-05-06T07:22:51.114Z,15.87
2018-05-06T07:25:17.845Z,16.87
2018-05-06T07:27:44.578Z,15.67
2018-05-06T07:30:11.284Z,17.20
2018-05-06T07:32:38.035Z,15.33
2018-05-06T07:35:04.759Z,15.17
2018-05-06T07:37:31.490Z,15.20
2018-05-06T07:39:58.205Z,14.57
2018-05-06T07:42:24.932Z,15.00
2018-05-06T07:44:51.663Z,15.00
2018-05-06T07:47:18.370Z,14.73
2018-05-06T07:49:45.121Z,15.33
2018-05-06T07:52:11.844Z,15.13
2018-05-06T07:54:38.564Z,15.37
2018-05-06T07:57:05.314Z,15.10
2018-05-06T07:59:32.031Z,14.57
2018-05-06T08:01:58.803Z,12.53
2018-05-06T08:04:25.551Z,13.90
2018-05-06T08:06:52.268Z,13.67
2018-05-06T08:09:19.009Z,13.37
2018-05-06T08:11:45.723Z,12.60
2018-05-06T08:14:12.493Z,13.10
2018-05-06T08:16:39.237Z,12.73
2018-05-06T08:19:05.940Z,12.97
2018-05-06T08:21:32.702Z,11.90
2018-05-06T08:23:59.409Z,13.03
2018-05-06T08:26:26.165Z,12.27
2018-05-06T08:28:52.908Z,11.17
2018-05-06T08:31:19.609Z,12.40
2018-05-06T08:33:46.330Z,12.20
2018-05-06T08:36:13.072Z,11.73
2018-05-06T08:38:39.778Z,12.47
2018-05-06T08:41:06.503Z,12.60
2018-05-06T08:43:34.193Z,12.77
2018-05-06T08:46:00.908Z,12.27
2018-05-06T08:48:27.658Z,11.90
2018-05-06T08:50:54.398Z,12.40
2018-05-06T08:53:21.123Z,12.90
2018-05-06T08:55:47.849Z,12.47
2018-05-06T08:58:14.557Z,11.70
2018-05-06T09:00:41.285Z,12.07
2018-05-06T09:03:08.018Z,11.67
2018-05-06T09:05:34.720Z,12.17
2018-05-06T09:08:01.452Z,12.03
2018-05-06T09:10:28.149Z,11.47
2018-05-06T09:12:54.885Z,11.90
2018-05-06T09:15:21.585Z,11.90
2018-05-06T09:17:48.281Z,11.33
2018-05-06T09:20:15.046Z,12.50
2018-05-06T09:22:41.758Z,11.60
2018-05-06T09:25:08.470Z,11.00
2018-05-06T09:27:35.196Z,11.20
2018-05-06T09:30:01.899Z,10.30
2018-05-06T09:32:28.626Z,10.17
2018-05-06T09:34:55.335Z,9.37
2018-05-06T09:37:22.036Z,9.23
2018-05-06T09:39:48.756Z,9.47
2018-05-06T09:42:15.472Z,8.43
2018-05-06T09:44:42.190Z,9.30
2018-05-06T09:47:08.900Z,8.13
2018-05-06T09:49:35.633Z,10.13
2018-05-06T09:52:02.362Z,8.70
2018-05-06T09:54:29.093Z,7.90
2018-05-06T09:56:55.796Z,7.90
2018-05-06T09:59:22.538Z,9.20
2018-05-06T10:01:49.258Z,9.43
2018-05-06T10:04:15.960Z,8.03
2018-05-06T10:06:42.765Z,10.07
2018-05-06T10:09:09.477Z,8.30
2018-05-06T10:11:36.242Z,8.03
2018-05-06T10:14:02.956Z,7.20
2018-05-06T10:16:29.666Z,8.73
2018-05-06T10:18:58.378Z,7.80
2018-05-06T10:21:25.080Z,7.10
2018-05-06T10:23:51.776Z,7.20
2018-05-06T10:26:18.500Z,7.50
2018-05-06T10:28:45.213Z,7.20
2018-05-06T10:31:11.926Z,7.53
2018-05-06T10:33:38.670Z,7.60
2018-05-06T10:36:05.365Z,7.30
2018-05-06T10:38:32.297Z,8.10
2018-05-06T10:40:58.987Z,7.13
2018-05-06T10:43:25.681Z,6.80
2018-05-06T10:45:52.450Z,7.53
2018-05-06T10:48:19.165Z,7.17
2018-05-06T10:50:45.895Z,7.17
2018-05-06T10:53:12.614Z,7.37
2018-05-06T10:55:39.319Z,6.80
2018-05-06T10:58:06.045Z,8.07
2018-05-06T11:00:32.753Z,7.87
2018-05-06T11:02:59.470Z,7.30
2018-05-06T11:05:26.190Z,7.63
2018-05-06T11:07:52.885Z,7.27
2018-05-06T11:10:19.732Z,7.80
2018-05-06T11:12:46.376Z,7.27
2018-05-06T11:15:13.079Z,7.40
2018-05-06T11:17:39.812Z,8.03
2018-05-06T11:20:06.510Z,6.90
2018-05-06T11:22:33.252Z,6.93
2018-05-06T11:24:59.978Z,6.70
2018-05-06T11:27:26.702Z,6.63
2018-05-06T11:29:53.435Z,6.83
2018-05-06T11:32:20.151Z,6.33
2018-05-06T11:34:46.961Z,6.93
2018-05-06T11:37:13.676Z,6.50
2018-05-06T11:39:40.409Z,7.27
2018-05-06T11:42:07.161Z,7.30
2018-05-06T11:44:33.855Z,7.47
2018-05-06T11:47:00.574Z,6.17
2018-05-06T11:49:27.307Z,6.80
2018-05-06T11:51:54.008Z,7.40
2018-05-06T11:54:20.724Z,6.93
2018-05-06T11:56:47.445Z,6.40
2018-05-06T11:59:14.167Z,7.00
2018-05-06T12:01:40.889Z,6.47
2018-05-06T12:04:07.602Z,6.47
2018-05-06T12:06:34.303Z,6.77
2018-05-06T12:09:01.041Z,6.53
2018-05-06T12:11:27.770Z,6.10
2018-05-06T12:13:54.473Z,6.40
2018-05-06T12:16:21.194Z,6.63
2018-05-06T12:18:47.894Z,6.60
2018-05-06T12:21:14.613Z,6.97
2018-05-06T12:23:41.345Z,6.47
2018-05-06T12:26:08.061Z,6.60
2018-05-06T12:28:34.765Z,6.13
2018-05-06T12:31:01.520Z,6.20
2018-05-06T12:33:28.215Z,5.70
2018-05-06T12:35:54.980Z,5.50
2018-05-06T12:38:21.684Z,5.10
2018-05-06T12:40:48.367Z,5.37
2018-05-06T12:43:15.101Z,5.33
2018-05-06T12:45:41.809Z,5.30
2018-05-06T12:48:08.515Z,4.87
2018-05-06T12:50:36.103Z,4.57
2018-05-06T12:53:02.876Z,4.90
2018-05-06T12:55:29.575Z,4.63
2018-05-06T12:57:56.274Z,4.70
2018-05-06T13:00:23.033Z,4.97
2018-05-06T13:02:49.736Z,4.23
2018-05-06T13:05:16.458Z,4.13
2018-05-06T13:07:43.190Z,3.77
2018-05-06T13:10:09.910Z,4.37
2018-05-06T13:12:36.614Z,4.00
2018-05-06T13:15:03.389Z,3.20
2018-05-06T13:17:30.074Z,3.60
2018-05-06T13:19:56.794Z,3.50
2018-05-06T13:22:23.533Z,3.00
2018-05-06T13:24:50.231Z,3.10
2018-05-06T13:27:16.961Z,3.57
2018-05-06T13:29:43.677Z,3.23
2018-05-06T13:32:10.404Z,3.40
2018-05-06T13:34:37.129Z,2.93
2018-05-06T13:37:03.880Z,3.80
2018-05-06T13:39:30.579Z,3.40
2018-05-06T13:41:57.283Z,3.20
2018-05-06T13:44:24.003Z,3.80
2018-05-06T13:46:50.717Z,3.40
2018-05-06T13:49:17.457Z,3.27
2018-05-06T13:51:44.184Z,3.37
2018-05-06T13:54:10.924Z,3.67
2018-05-06T13:56:37.653Z,3.37
2018-05-06T13:59:04.349Z,3.60
2018-05-06T14:01:31.160Z,3.60
2018-05-06T14:03:57.956Z,3.57
2018-05-06T14:06:24.651Z,3.10
2018-05-06T14:08:51.360Z,2.97
2018-05-06T14:11:18.092Z,2.87
2018-05-06T14:13:44.788Z,3.00
2018-05-06T14:16:11.627Z,3.50
2018-05-06T14:18:38.360Z,3.37
2018-05-06T14:21:05.142Z,3.40
2018-05-06T14:23:31.849Z,3.00
2018-05-06T14:25:58.560Z,3.10
2018-05-06T14:28:25.288Z,2.77
2018-05-06T14:30:51.991Z,2.83
2018-05-06T14:33:18.712Z,3.50
2018-05-06T14:35:45.434Z,3.10
2018-05-06T14:38:12.136Z,3.07
2018-05-06T14:40:38.858Z,2.87
2018-05-06T14:43:05.581Z,3.50
2018-05-06T14:45:32.272Z,3.30
2018-05-06T14:48:04.848Z,2.80
2018-05-06T14:50:31.536Z,2.70
2018-05-06T14:52:58.255Z,2.93
2018-05-06T14:55:24.973Z,3.20
2018-05-06T14:57:51.668Z,3.30
2018-05-06T15:00:18.398Z,3.40
2018-05-06T15:02:45.090Z,3.13
2018-05-06T15:05:11.791Z,3.60
2018-05-06T15:07:38.525Z,5.17
2018-05-06T15:10:05.274Z,3.13
2018-05-06T15:12:31.987Z,3.00
2018-05-06T15:14:58.711Z,3.23
2018-05-06T15:17:25.406Z,3.37
2018-05-06T15:19:52.153Z,3.10
2018-05-06T15:22:18.878Z,3.50
2018-05-06T15:24:45.587Z,8.80
2018-05-06T15:27:12.324Z,5.93
2018-05-06T15:29:39.033Z,3.60
2018-05-06T15:32:05.752Z,2.93
2018-05-06T15:34:32.459Z,3.27
2018-05-06T15:36:59.198Z,3.40
2018-05-06T15:39:25.926Z,2.77
2018-05-06T15:41:52.649Z,2.90
2018-05-06T15:44:19.359Z,3.07
2018-05-06T15:46:46.066Z,3.00
2018-05-06T15:49:12.805Z,2.83
2018-05-06T15:51:39.529Z,2.90
2018-05-06T15:54:06.220Z,3.27
2018-05-06T15:56:32.973Z,3.43
2018-05-06T15:58:59.678Z,2.93
2018-05-06T16:01:26.494Z,3.60
2018-05-06T16:03:59.234Z,3.10
2018-05-06T16:06:25.946Z,3.23
2018-05-06T16:08:52.676Z,2.97
2018-05-06T16:11:19.413Z,2.90
2018-05-06T16:13:46.136Z,3.30
2018-05-06T16:16:12.851Z,3.00
2018-05-06T16:18:39.578Z,3.27
2018-05-06T16:21:06.306Z,3.23
2018-05-06T16:23:33.015Z,3.97
2018-05-06T16:25:59.885Z,2.90
2018-05-06T16:28:26.608Z,2.83
2018-05-06T16:30:53.318Z,2.93
2018-05-06T16:33:20.041Z,3.70
2018-05-06T16:35:46.768Z,3.40
2018-05-06T16:38:13.480Z,3.07
2018-05-06T16:40:40.215Z,3.50
2018-05-06T16:43:06.917Z,3.97
2018-05-06T16:45:33.621Z,3.73
2018-05-06T16:48:00.349Z,3.40
2018-05-06T16:50:27.060Z,3.13
2018-05-06T16:52:53.765Z,3.43
2018-05-06T16:55:20.514Z,3.10
2018-05-06T16:57:47.216Z,2.90
2018-05-06T17:00:13.988Z,2.80
2018-05-06T17:02:40.717Z,3.30
2018-05-06T17:05:07.452Z,3.33
2018-05-06T17:07:34.207Z,3.00
2018-05-06T17:10:00.936Z,3.27
2018-05-06T17:12:27.653Z,3.73
2018-05-06T17:14:54.602Z,3.30
2018-05-06T17:17:21.322Z,3.10
2018-05-06T17:19:48.085Z,3.30
2018-05-06T17:22:15.181Z,3.10
2018-05-06T17:24:41.904Z,3.63
2018-05-06T17:27:08.650Z,3.00
2018-05-06T17:29:35.361Z,3.10
2018-05-06T17:32:02.138Z,3.47
2018-05-06T17:34:28.843Z,3.40
2018-05-06T17:36:55.623Z,3.33
2018-05-06T17:39:22.378Z,3.87
2018-05-06T17:41:49.106Z,3.73
2018-05-06T17:44:15.922Z,3.00
2018-05-06T17:46:42.680Z,4.20
2018-05-06T17:49:10.040Z,4.77
2018-05-06T17:51:36.842Z,5.70
2018-05-06T17:54:03.584Z,4.23
2018-05-06T17:56:30.321Z,3.70
2018-05-06T17:58:57.061Z,3.90
2018-05-06T18:01:23.781Z,3.20
2018-05-06T18:03:50.525Z,3.23
2018-05-06T18:06:17.327Z,3.43
2018-05-06T18:08:44.190Z,4.00
2018-05-06T18:11:10.920Z,3.07
2018-05-06T18:13:37.647Z,3.13
2018-05-06T18:16:04.575Z,3.47
2018-05-06T18:18:31.330Z,3.70
2018-05-06T18:20:58.058Z,3.37
2018-05-06T18:23:24.768Z,4.10
2018-05-06T18:25:51.528Z,3.90
2018-05-06T18:28:18.278Z,3.60
2018-05-06T18:30:45.012Z,3.70
2018-05-06T18:33:11.758Z,3.83
2018-05-06T18:35:38.485Z,4.03
2018-05-06T18:38:05.304Z,3.80
2018-05-06T18:40:32.055Z,3.87
2018-05-06T18:42:58.829Z,4.47
2018-05-06T18:45:25.590Z,4.10
2018-05-06T18:47:52.326Z,3.73
2018-05-06T18:50:19.076Z,4.10
2018-05-06T18:52:45.847Z,4.00
2018-05-06T18:55:12.578Z,3.83
2018-05-06T18:57:39.380Z,4.50
2018-05-06T19:00:06.185Z,4.60
2018-05-06T19:02:32.921Z,3.90
2018-05-06T19:04:59.674Z,4.07
2018-05-06T19:07:26.416Z,4.23
2018-05-06T19:09:53.143Z,4.20
2018-05-06T19:12:19.900Z,4.33
2018-05-06T19:14:46.622Z,3.57
2018-05-06T19:17:13.338Z,4.30
2018-05-06T19:19:40.076Z,4.17
2018-05-06T19:22:06.785Z,3.80
2018-05-06T19:24:33.506Z,4.20
2018-05-06T19:27:00.257Z,4.13
2018-05-06T19:29:27.020Z,4.13
2018-05-06T19:31:53.760Z,4.80
2018-05-06T19:34:20.475Z,4.07
2018-05-06T19:36:47.247Z,4.03
2018-05-06T19:39:13.962Z,4.17
2018-05-06T19:41:40.677Z,4.20
2018-05-06T19:44:07.443Z,4.00
2018-05-06T19:46:34.178Z,4.10
2018-05-06T19:49:01.002Z,4.40
2018-05-06T19:51:27.743Z,4.30
2018-05-06T19:53:54.481Z,4.30
2018-05-06T19:56:21.215Z,4.40
2018-05-06T19:58:47.972Z,4.63
2018-05-06T20:01:14.703Z,4.57
2018-05-06T20:03:41.426Z,4.03
2018-05-06T20:06:08.174Z,4.97
2018-05-06T20:08:35.485Z,4.13
2018-05-06T20:11:02.203Z,4.03
2018-05-06T20:13:28.940Z,4.27
2018-05-06T20:15:55.693Z,3.93
2018-05-06T20:18:22.422Z,3.97
2018-05-06T20:20:49.175Z,3.80
2018-05-06T20:23:15.901Z,4.17
2018-05-06T20:25:42.665Z,3.90
2018-05-06T20:28:09.392Z,4.10
2018-05-06T20:30:37.824Z,4.00
2018-05-06T20:33:04.629Z,3.90
2018-05-06T20:35:31.348Z,4.50
2018-05-06T20:37:58.119Z,4.90
2018-05-06T20:40:24.839Z,4.10
2018-05-06T20:42:51.539Z,4.30
2018-05-06T20:45:18.301Z,4.90
2018-05-06T20:47:45.051Z,4.70
2018-05-06T20:50:11.764Z,4.30
2018-05-06T20:52:38.513Z,4.40
2018-05-06T20:55:05.212Z,4.50
2018-05-06T20:57:31.954Z,4.47
2018-05-06T20:59:58.672Z,4.57
2018-05-06T21:02:25.365Z,4.50
2018-05-06T21:04:52.081Z,5.37
2018-05-06T21:07:18.825Z,4.50
2018-05-06T21:09:45.550Z,5.27
2018-05-06T21:12:12.464Z,4.67
2018-05-06T21:14:39.201Z,5.00
2018-05-06T21:17:05.894Z,4.40
2018-05-06T21:19:32.645Z,4.70
2018-05-06T21:21:59.556Z,4.67
2018-05-06T21:24:26.262Z,4.13
2018-05-06T21:26:53.013Z,5.00
2018-05-06T21:29:19.712Z,4.57
2018-05-06T21:31:46.591Z,5.10
2018-05-06T21:34:13.856Z,4.80
2018-05-06T21:36:40.764Z,4.63
2018-05-06T21:39:07.588Z,5.20
2018-05-06T21:41:34.271Z,4.97
2018-05-06T21:44:00.969Z,5.10
2018-05-06T21:46:27.668Z,4.90
2018-05-06T21:48:54.394Z,5.80
2018-05-06T21:51:21.108Z,5.40
2018-05-06T21:53:47.868Z,6.10
2018-05-06T21:56:14.594Z,5.33
2018-05-06T21:58:41.324Z,4.93
2018-05-06T22:01:11.987Z,5.20
2018-05-06T22:03:38.712Z,5.37
2018-05-06T22:06:05.413Z,5.57
2018-05-06T22:08:32.207Z,5.43
2018-05-06T22:10:58.946Z,5.27
2018-05-06T22:13:25.660Z,5.60
2018-05-06T22:15:52.377Z,4.90
2018-05-06T22:18:19.067Z,4.60
2018-05-06T22:20:45.783Z,4.70
2018-05-06T22:23:12.582Z,4.87
2018-05-06T22:25:39.261Z,4.50
2018-05-06T22:28:06.005Z,4.70
2018-05-06T22:30:32.720Z,4.40
2018-05-06T22:32:59.464Z,4.67
2018-05-06T22:35:26.186Z,4.33
2018-05-06T22:37:52.890Z,4.50
2018-05-06T22:40:19.607Z,4.20
2018-05-06T22:42:46.306Z,4.60
2018-05-06T22:45:13.042Z,4.63
2018-05-06T22:47:39.756Z,3.43
2018-05-06T22:50:06.457Z,5.00
2018-05-06T22:52:33.167Z,4.10
2018-05-06T22:54:59.873Z,3.93
2018-05-06T22:57:26.647Z,3.67
2018-05-06T22:59:53.399Z,4.37
2018-05-06T23:02:20.095Z,4.03
2018-05-06T23:04:46.833Z,4.67
2018-05-06T23:07:13.536Z,4.80
2018-05-06T23:09:40.264Z,4.17
2018-05-06T23:12:06.974Z,4.00
2018-05-06T23:14:33.674Z,4.63
2018-05-06T23:17:00.396Z,4.90
2018-05-06T23:19:27.096Z,4.03
2018-05-06T23:21:53.832Z,4.03
2018-05-06T23:24:20.530Z,3.83
2018-05-06T23:26:47.240Z,3.63
2018-05-06T23:29:14.011Z,5.43
2018-05-06T23:31:40.786Z,4.13
2018-05-06T23:34:07.497Z,4.23
2018-05-06T23:36:34.223Z,4.93
2018-05-06T23:39:00.925Z,3.83
2018-05-06T23:41:27.656Z,4.27
2018-05-06T23:43:54.361Z,4.40
2018-05-06T23:46:22.004Z,4.07
2018-05-06T23:48:48.705Z,4.33
2018-05-06T23:51:15.402Z,4.17
2018-05-06T23:53:42.141Z,4.33
2018-05-06T23:56:08.837Z,4.50
2018-05-06T23:58:35.540Z,4.83
